Time;durP1;ratioP1;P1;durP2;ratioP2;P2;SDS_P1;SDS_P2;PMS_P1;PMS_P2;Temp;Humidity;BMP_temperature;BMP_pressure;BME280_temperature;BME280_humidity;BME280_pressure;Samples;Min_cycle;Max_cycle;Signal;HPM_P1;HPM_P2
2024/01/24 00:01:10;;;;;;;19.10;1.67;;;11.70;99.90;;;;;;5038685;28;20162;-82
2024/01/24 00:03:36;;;;;;;16.93;0.90;;;11.80;99.90;;;;;;5039388;28;20169;-81
2024/01/24 00:06:01;;;;;;;17.30;1.57;;;12.00;99.90;;;;;;5038888;28;20220;-80
2024/01/24 00:08:27;;;;;;;18.00;1.20;;;12.00;99.90;;;;;;5038746;28;20266;-81
2024/01/24 00:10:53;;;;;;;17.90;1.40;;;12.10;99.90;;;;;;5039305;28;20161;-82
2024/01/24 00:13:19;;;;;;;17.90;1.30;;;12.10;99.90;;;;;;5038781;28;20650;-81
2024/01/24 00:15:44;;;;;;;16.90;1.20;;;12.20;99.90;;;;;;5037870;28;20534;-82
2024/01/24 00:18:10;;;;;;;17.93;1.13;;;12.30;99.90;;;;;;5037476;28;20539;-82
2024/01/24 00:20:36;;;;;;;17.30;1.10;;;12.30;99.90;;;;;;5038093;28;20165;-82
2024/01/24 00:23:02;;;;;;;17.90;1.25;;;12.40;99.90;;;;;;5038457;28;20158;-83
2024/01/24 00:25:27;;;;;;;17.20;1.33;;;12.40;99.90;;;;;;5042469;28;20166;-83
2024/01/24 00:27:53;;;;;;;16.97;1.30;;;12.40;99.90;;;;;;5041479;28;20263;-81
2024/01/24 00:30:19;;;;;;;17.70;1.37;;;12.50;99.90;;;;;;5041538;28;20176;-82
2024/01/24 00:32:44;;;;;;;17.00;1.40;;;12.60;99.90;;;;;;5042354;28;20203;-82
2024/01/24 00:35:10;;;;;;;16.80;1.10;;;12.50;99.90;;;;;;5043216;28;20524;-82
2024/01/24 00:37:36;;;;;;;17.90;1.37;;;12.60;99.90;;;;;;5042345;28;20682;-81
2024/01/24 00:40:03;;;;;;;18.10;1.60;;;12.60;99.90;;;;;;5041343;28;20201;-82
2024/01/24 00:42:28;;;;;;;16.98;1.17;;;12.60;99.90;;;;;;5042163;28;20162;-83
2024/01/24 00:44:55;;;;;;;17.20;1.40;;;12.60;99.90;;;;;;5022984;28;20265;-80
2024/01/24 00:47:20;;;;;;;17.45;1.77;;;12.60;99.90;;;;;;5040992;28;20182;-83
2024/01/24 00:49:46;;;;;;;18.27;1.53;;;12.60;99.90;;;;;;5041491;28;20162;-81
2024/01/24 00:52:12;;;;;;;18.73;1.40;;;12.60;99.90;;;;;;5040597;28;20535;-80
2024/01/24 00:54:38;;;;;;;20.33;1.50;;;12.70;99.90;;;;;;5040499;28;20396;-82
2024/01/24 00:57:04;;;;;;;18.35;1.67;;;12.70;99.90;;;;;;5039452;28;20917;-80
2024/01/24 00:59:30;;;;;;;19.40;1.70;;;12.70;99.90;;;;;;5040000;28;20252;-82
2024/01/24 01:01:55;;;;;;;18.17;1.67;;;12.70;99.90;;;;;;5040343;28;20401;-81
2024/01/24 01:04:21;;;;;;;18.90;1.30;;;12.70;99.90;;;;;;5040137;28;20170;-83
2024/01/24 01:06:47;;;;;;;17.37;1.33;;;12.70;99.90;;;;;;5040287;28;20197;-81
2024/01/24 01:09:12;;;;;;;17.10;1.27;;;12.80;99.90;;;;;;5040493;28;20174;-81
2024/01/24 01:11:38;;;;;;;17.40;1.13;;;12.80;99.90;;;;;;5042077;28;20539;-80
2024/01/24 01:14:04;;;;;;;17.30;1.53;;;12.80;99.90;;;;;;5023671;28;20433;-82
2024/01/24 01:16:30;;;;;;;18.70;1.70;;;12.80;99.90;;;;;;5041484;28;20421;-82
2024/01/24 01:18:55;;;;;;;17.87;1.33;;;12.90;99.90;;;;;;5041965;28;20452;-81
2024/01/24 01:21:21;;;;;;;18.10;1.57;;;12.90;99.90;;;;;;5042139;28;20166;-82
2024/01/24 01:23:47;;;;;;;17.67;1.23;;;13.00;99.90;;;;;;5041487;28;20170;-82
2024/01/24 01:26:13;;;;;;;17.30;1.13;;;13.00;99.90;;;;;;5041872;28;20249;-82
2024/01/24 01:28:38;;;;;;;18.10;1.70;;;13.00;99.90;;;;;;5040758;28;20181;-81
2024/01/24 01:31:04;;;;;;;17.10;1.60;;;13.00;99.90;;;;;;5022869;28;20170;-81
2024/01/24 01:33:30;;;;;;;18.43;1.50;;;13.00;99.90;;;;;;5040618;28;20170;-81
2024/01/24 01:35:56;;;;;;;18.33;1.43;;;13.10;99.90;;;;;;5022553;28;20417;-81
2024/01/24 01:38:21;;;;;;;21.93;2.50;;;13.10;99.90;;;;;;5040199;28;20189;-83
2024/01/24 01:40:47;;;;;;;18.57;1.47;;;13.00;99.90;;;;;;5040518;28;20166;-82
2024/01/24 01:43:13;;;;;;;18.43;1.87;;;13.10;99.90;;;;;;5039555;28;20197;-81
2024/01/24 01:45:40;;;;;;;17.15;1.75;;;13.20;99.90;;;;;;5039854;28;20184;-81
2024/01/24 01:48:07;;;;;;;16.48;1.10;;;13.20;99.90;;;;;;5039740;28;20611;-82
2024/01/24 01:50:33;;;;;;;17.33;1.48;;;13.20;99.90;;;;;;5022137;28;20197;-83
2024/01/24 01:53:00;;;;;;;18.20;1.80;;;13.20;99.90;;;;;;5039129;28;20166;-81
2024/01/24 01:55:25;;;;;;;18.15;1.40;;;13.20;99.90;;;;;;5040418;28;20277;-81
2024/01/24 01:57:52;;;;;;;19.53;1.80;;;13.10;99.90;;;;;;5039118;28;20232;-81
2024/01/24 02:00:21;;;;;;;19.10;1.80;;;13.20;99.90;;;;;;5040502;28;20451;-83
2024/01/24 02:02:47;;;;;;;17.50;1.40;;;13.20;99.90;;;;;;5040281;28;20252;-83
2024/01/24 02:05:16;;;;;;;16.83;1.50;;;13.20;99.90;;;;;;5040234;28;20177;-83
2024/01/24 02:07:43;;;;;;;16.50;1.15;;;13.20;99.90;;;;;;5022645;28;20240;-81
2024/01/24 02:10:13;;;;;;;16.83;1.30;;;13.20;99.90;;;;;;5040830;28;20670;-81
2024/01/24 02:12:39;;;;;;;16.80;1.30;;;13.20;99.90;;;;;;5040592;28;20220;-80
2024/01/24 02:15:06;;;;;;;17.37;1.33;;;13.20;99.90;;;;;;5039555;28;20170;-81
2024/01/24 02:17:31;;;;;;;17.48;1.42;;;13.20;99.90;;;;;;5039651;28;20193;-82
2024/01/24 02:19:57;;;;;;;16.40;1.10;;;13.20;99.90;;;;;;5039909;28;20193;-81
2024/01/24 02:22:23;;;;;;;17.73;1.40;;;13.20;99.90;;;;;;5040870;28;20166;-81
2024/01/24 02:24:48;;;;;;;16.87;1.30;;;13.20;99.90;;;;;;5042806;28;20217;-81
2024/01/24 02:27:14;;;;;;;16.47;1.10;;;13.20;99.90;;;;;;5041006;28;20193;-82
2024/01/24 02:29:40;;;;;;;16.90;1.23;;;13.20;99.90;;;;;;5022783;28;20193;-81
2024/01/24 02:32:06;;;;;;;17.80;1.60;;;13.10;99.90;;;;;;5039779;28;20165;-81
2024/01/24 02:34:31;;;;;;;17.90;1.30;;;13.10;99.90;;;;;;5039769;28;20249;-83
2024/01/24 02:36:57;;;;;;;16.60;1.00;;;13.10;99.90;;;;;;5040952;28;20512;-81
2024/01/24 02:39:23;;;;;;;17.10;1.00;;;13.20;99.90;;;;;;5039881;28;20193;-82
2024/01/24 02:41:48;;;;;;;16.53;1.00;;;13.10;99.90;;;;;;5039230;28;20169;-83
2024/01/24 02:44:14;;;;;;;16.60;1.07;;;13.20;99.90;;;;;;5039500;28;20170;-82
2024/01/24 02:46:40;;;;;;;16.90;1.33;;;13.20;99.90;;;;;;5038422;28;20181;-81
2024/01/24 02:49:05;;;;;;;16.77;0.93;;;13.30;99.90;;;;;;5039664;28;20170;-82
2024/01/24 02:51:31;;;;;;;16.50;0.90;;;13.30;99.90;;;;;;5039874;28;20181;-82
2024/01/24 02:53:56;;;;;;;18.20;1.37;;;13.30;99.90;;;;;;5040042;28;20166;-81
2024/01/24 02:56:22;;;;;;;16.60;1.10;;;13.30;99.90;;;;;;5039210;28;20212;-82
2024/01/24 02:58:48;;;;;;;16.37;0.93;;;13.40;99.90;;;;;;5038589;28;20275;-82
2024/01/24 03:01:15;;;;;;;16.23;1.00;;;13.50;99.90;;;;;;5021925;28;20165;-81
2024/01/24 03:03:42;;;;;;;22.50;1.00;;;13.40;99.90;;;;;;5038748;28;20190;-83
2024/01/24 03:06:08;;;;;;;16.27;1.13;;;13.40;99.90;;;;;;5038129;28;20170;-83
2024/01/24 03:08:56;;;;;;;19.05;0.98;;;13.40;99.90;;;;;;5037752;28;20231;-81
2024/01/24 03:11:22;;;;;;;16.90;1.10;;;13.40;99.90;;;;;;5020634;28;20202;-83
2024/01/24 03:13:48;;;;;;;18.83;0.90;;;13.50;99.90;;;;;;5039921;28;20174;-81
2024/01/24 03:16:13;;;;;;;18.20;0.90;;;13.50;99.90;;;;;;5038264;28;20176;-81
2024/01/24 03:18:39;;;;;;;16.27;1.10;;;13.50;99.90;;;;;;5037996;28;20189;-81
2024/01/24 03:21:06;;;;;;;15.63;0.80;;;13.50;99.90;;;;;;5038531;28;20166;-81
2024/01/24 03:23:32;;;;;;;16.40;0.80;;;13.50;99.90;;;;;;5021341;28;20252;-84
2024/01/24 03:25:58;;;;;;;17.65;0.90;;;13.60;99.90;;;;;;5037488;28;20162;-82
2024/01/24 03:28:23;;;;;;;15.90;0.80;;;13.60;99.90;;;;;;5036657;28;20192;-81
2024/01/24 03:30:49;;;;;;;16.53;0.90;;;13.60;99.90;;;;;;5037645;28;20407;-81
2024/01/24 03:33:15;;;;;;;16.03;0.87;;;13.60;99.90;;;;;;5036742;28;20234;-81
2024/01/24 03:35:41;;;;;;;15.97;0.70;;;13.60;99.90;;;;;;5037382;28;20173;-81
2024/01/24 03:38:07;;;;;;;15.90;0.80;;;13.50;99.90;;;;;;5037745;28;20178;-82
2024/01/24 03:40:33;;;;;;;15.70;0.70;;;13.60;99.90;;;;;;5038109;28;20254;-81
2024/01/24 03:42:59;;;;;;;15.97;0.90;;;13.60;99.90;;;;;;5038238;28;20197;-82
2024/01/24 03:45:24;;;;;;;16.00;0.80;;;13.60;99.90;;;;;;5037055;28;20178;-82
2024/01/24 03:47:50;;;;;;;15.73;0.80;;;13.60;99.90;;;;;;5019114;28;20190;-82
2024/01/24 03:50:16;;;;;;;17.00;0.97;;;13.70;99.90;;;;;;5037075;28;20166;-81
2024/01/24 03:52:41;;;;;;;15.80;0.70;;;13.60;99.90;;;;;;5036895;28;20170;-83
2024/01/24 03:55:07;;;;;;;15.67;0.80;;;13.60;99.90;;;;;;5037241;28;20174;-82
2024/01/24 03:57:33;;;;;;;15.67;0.70;;;13.60;99.90;;;;;;5038562;28;20189;-82
2024/01/24 03:59:59;;;;;;;15.83;0.70;;;13.60;99.90;;;;;;5022976;28;20452;-83
2024/01/24 04:02:27;;;;;;;16.97;1.00;;;13.60;99.90;;;;;;5023538;28;20178;-82
2024/01/24 04:04:52;;;;;;;15.75;0.80;;;13.60;99.90;;;;;;5023363;28;20166;-80
2024/01/24 04:07:18;;;;;;;15.80;0.80;;;13.60;99.90;;;;;;5040320;28;20208;-82
2024/01/24 04:09:44;;;;;;;16.20;1.00;;;13.60;99.90;;;;;;5040086;28;20177;-80
2024/01/24 04:12:10;;;;;;;17.47;0.60;;;13.60;99.90;;;;;;5040194;28;20248;-81
2024/01/24 04:14:36;;;;;;;15.60;0.60;;;13.60;99.90;;;;;;5040076;28;20226;-81
2024/01/24 04:17:01;;;;;;;15.90;0.70;;;13.70;99.90;;;;;;5039728;28;20224;-82
2024/01/24 04:19:27;;;;;;;15.40;0.67;;;13.80;99.90;;;;;;5040116;28;20193;-81
2024/01/24 04:21:52;;;;;;;15.53;0.70;;;13.80;99.90;;;;;;5039873;28;20158;-82
2024/01/24 04:24:18;;;;;;;15.90;0.83;;;13.80;99.90;;;;;;5040101;28;20165;-81
2024/01/24 04:26:44;;;;;;;16.00;0.73;;;13.80;99.90;;;;;;5039665;28;20217;-82
2024/01/24 04:29:10;;;;;;;15.60;0.70;;;13.80;99.90;;;;;;5040132;28;20166;-81
2024/01/24 04:31:35;;;;;;;15.63;0.60;;;13.80;99.90;;;;;;5039798;28;20162;-81
2024/01/24 04:34:01;;;;;;;15.77;0.70;;;13.80;99.90;;;;;;5040258;28;20473;-81
2024/01/24 04:36:27;;;;;;;15.93;0.70;;;13.80;99.90;;;;;;5040761;28;20188;-82
2024/01/24 04:38:52;;;;;;;16.13;0.90;;;13.70;99.90;;;;;;5040093;28;20185;-81
2024/01/24 04:41:18;;;;;;;15.67;0.70;;;13.70;99.90;;;;;;5040503;28;20170;-81
2024/01/24 04:43:44;;;;;;;15.93;0.70;;;13.60;99.90;;;;;;5039667;28;20162;-82
2024/01/24 04:46:13;;;;;;;15.83;0.70;;;13.60;99.90;;;;;;5039560;28;20578;-83
2024/01/24 04:48:41;;;;;;;15.70;0.60;;;13.70;99.90;;;;;;5040169;28;20166;-81
2024/01/24 04:51:07;;;;;;;15.90;0.70;;;13.70;99.90;;;;;;5040987;28;20177;-81
2024/01/24 04:53:33;;;;;;;15.90;0.70;;;13.70;99.90;;;;;;5039652;28;20529;-82
2024/01/24 04:55:59;;;;;;;15.83;0.70;;;13.60;99.90;;;;;;5021918;28;20284;-81
2024/01/24 04:58:25;;;;;;;15.77;0.80;;;13.60;99.90;;;;;;5022534;28;20439;-81
2024/01/24 05:00:50;;;;;;;15.80;0.70;;;13.60;99.90;;;;;;5021878;28;20447;-81
2024/01/24 05:03:16;;;;;;;15.83;0.80;;;13.60;99.90;;;;;;5039747;28;20174;-81
2024/01/24 05:05:41;;;;;;;16.00;0.83;;;13.50;99.90;;;;;;5039338;28;20166;-81
2024/01/24 05:08:07;;;;;;;15.63;0.60;;;13.50;99.90;;;;;;5039670;28;20272;-81
2024/01/24 05:10:33;;;;;;;15.97;0.80;;;13.50;99.90;;;;;;5020561;28;20610;-81
2024/01/24 05:12:58;;;;;;;16.27;0.70;;;13.50;99.90;;;;;;5038910;28;20201;-81
2024/01/24 05:15:24;;;;;;;15.60;0.77;;;13.50;99.90;;;;;;5039690;28;20166;-81
2024/01/24 05:17:50;;;;;;;15.83;0.83;;;13.50;99.90;;;;;;5040282;28;20689;-81
2024/01/24 05:20:17;;;;;;;15.63;0.70;;;13.50;99.90;;;;;;5039005;28;20228;-80
2024/01/24 05:22:43;;;;;;;15.48;0.80;;;13.60;99.90;;;;;;5038283;28;20165;-79
2024/01/24 05:25:09;;;;;;;15.57;0.90;;;13.50;99.90;;;;;;5037052;28;20166;-79
2024/01/24 05:27:35;;;;;;;15.95;0.70;;;13.40;99.90;;;;;;5036747;28;20725;-79
2024/01/24 05:30:01;;;;;;;16.05;0.70;;;13.20;99.90;;;;;;5036202;28;20180;-81
2024/01/24 05:32:27;;;;;;;16.67;0.80;;;13.10;99.90;;;;;;5036482;28;20166;-81
2024/01/24 05:34:53;;;;;;;16.33;0.70;;;13.10;99.90;;;;;;5036430;28;20170;-82
2024/01/24 05:37:18;;;;;;;16.97;0.90;;;13.00;99.90;;;;;;5036692;28;20193;-79
2024/01/24 05:39:44;;;;;;;16.03;1.00;;;12.90;99.90;;;;;;5036287;28;20293;-82
2024/01/24 05:42:10;;;;;;;16.23;0.90;;;12.80;99.90;;;;;;5037306;28;20177;-80
2024/01/24 05:44:36;;;;;;;18.67;1.05;;;12.80;99.90;;;;;;5037069;28;20615;-81
2024/01/24 05:47:01;;;;;;;16.87;1.23;;;12.80;99.90;;;;;;5037888;28;20189;-82
2024/01/24 05:49:27;;;;;;;16.43;0.90;;;12.80;99.90;;;;;;5038451;28;20166;-81
2024/01/24 05:51:53;;;;;;;21.47;1.77;;;12.80;99.90;;;;;;5040251;28;20711;-81
2024/01/24 05:54:18;;;;;;;16.07;0.97;;;12.80;99.90;;;;;;5041473;28;20208;-80
2024/01/24 05:56:44;;;;;;;16.67;1.07;;;12.80;99.90;;;;;;5041233;28;20185;-82
2024/01/24 05:59:10;;;;;;;19.43;1.30;;;12.80;99.90;;;;;;5039884;28;20189;-82
2024/01/24 06:01:36;;;;;;;18.77;1.70;;;12.70;99.90;;;;;;5038932;28;20205;-81
2024/01/24 06:04:02;;;;;;;16.40;1.30;;;12.70;99.90;;;;;;5039390;28;20276;-83
2024/01/24 06:06:27;;;;;;;21.07;1.67;;;12.70;99.90;;;;;;5038667;28;20630;-81
2024/01/24 06:08:53;;;;;;;16.47;1.30;;;12.80;99.90;;;;;;5038918;28;20158;-82
2024/01/24 06:11:19;;;;;;;19.67;2.00;;;12.80;99.90;;;;;;5038898;28;20174;-82
2024/01/24 06:13:44;;;;;;;18.27;1.40;;;12.80;99.90;;;;;;5038990;28;20197;-82
2024/01/24 06:16:10;;;;;;;23.73;2.07;;;12.80;99.90;;;;;;5038429;28;20181;-85
2024/01/24 06:18:36;;;;;;;16.60;1.10;;;12.80;99.90;;;;;;5038799;28;20487;-82
2024/01/24 06:21:02;;;;;;;21.00;1.60;;;12.70;99.90;;;;;;5038298;28;20415;-81
2024/01/24 06:23:27;;;;;;;18.57;1.70;;;12.70;99.90;;;;;;5038637;28;20165;-81
2024/01/24 06:25:53;;;;;;;21.97;2.07;;;12.70;99.90;;;;;;5038541;28;20157;-81
2024/01/24 06:28:19;;;;;;;18.40;1.53;;;12.70;99.90;;;;;;5037601;28;20184;-82
2024/01/24 06:30:45;;;;;;;22.13;1.70;;;12.70;99.90;;;;;;5037949;28;20809;-83
2024/01/24 06:33:12;;;;;;;19.03;1.77;;;12.70;99.90;;;;;;5038107;28;20193;-81
2024/01/24 06:35:37;;;;;;;24.35;2.40;;;12.70;99.90;;;;;;5020887;28;20643;-82
2024/01/24 06:38:03;;;;;;;24.40;2.67;;;12.70;99.90;;;;;;5038214;28;20201;-81
2024/01/24 06:40:29;;;;;;;27.00;3.30;;;12.60;99.90;;;;;;5039567;28;20448;-82
2024/01/24 06:42:55;;;;;;;22.85;2.25;;;12.60;99.90;;;;;;5037579;28;20253;-81
2024/01/24 06:45:21;;;;;;;24.03;2.90;;;12.60;99.90;;;;;;5038656;28;20189;-82
2024/01/24 06:47:47;;;;;;;22.13;2.80;;;12.60;99.90;;;;;;5037715;28;20183;-82
2024/01/24 06:50:13;;;;;;;27.30;3.05;;;12.60;99.90;;;;;;5036992;28;20408;-82
2024/01/24 06:52:40;;;;;;;25.20;3.20;;;12.60;99.90;;;;;;5019190;28;20204;-80
2024/01/24 06:55:06;;;;;;;23.30;1.95;;;12.60;99.90;;;;;;5037844;28;20252;-82
2024/01/24 06:57:32;;;;;;;24.17;2.70;;;12.60;99.90;;;;;;5036858;28;20622;-82
2024/01/24 06:59:58;;;;;;;25.97;4.03;;;12.50;99.90;;;;;;5019745;28;20220;-81
2024/01/24 07:02:24;;;;;;;26.57;3.63;;;12.50;99.90;;;;;;5019771;28;20177;-82
2024/01/24 07:04:50;;;;;;;27.58;2.90;;;12.50;99.90;;;;;;5038515;28;20154;-82
2024/01/24 07:07:16;;;;;;;23.83;3.88;;;12.40;99.90;;;;;;5037149;28;20670;-81
2024/01/24 07:09:41;;;;;;;30.87;3.97;;;12.40;99.90;;;;;;5020109;28;20177;-82
2024/01/24 07:12:07;;;;;;;23.60;2.53;;;12.40;99.90;;;;;;5037248;28;20185;-82
2024/01/24 07:14:33;;;;;;;27.67;2.60;;;12.40;99.90;;;;;;5018955;28;20173;-81
2024/01/24 07:17:00;;;;;;;26.08;3.25;;;12.30;99.90;;;;;;5018768;28;20189;-81
2024/01/24 07:19:26;;;;;;;30.65;3.47;;;12.30;99.90;;;;;;5018775;28;20263;-81
2024/01/24 07:21:51;;;;;;;24.37;3.77;;;12.30;99.90;;;;;;5018971;28;20166;-83
2024/01/24 07:24:17;;;;;;;26.83;3.73;;;12.30;99.90;;;;;;5020012;28;20930;-83
2024/01/24 07:26:43;;;;;;;23.30;3.03;;;12.30;99.90;;;;;;5037526;28;20189;-82
2024/01/24 07:29:10;;;;;;;27.17;3.75;;;12.30;99.90;;;;;;5020494;28;20174;-81
2024/01/24 07:31:37;;;;;;;24.40;2.80;;;12.30;99.90;;;;;;5037544;28;20207;-82
2024/01/24 07:34:03;;;;;;;24.92;3.15;;;12.30;99.90;;;;;;5042183;28;20150;-81
2024/01/24 07:36:29;;;;;;;29.90;3.60;;;12.30;99.90;;;;;;5041068;28;20256;-82
2024/01/24 07:38:54;;;;;;;28.53;3.30;;;12.30;99.90;;;;;;5040210;28;20189;-81
2024/01/24 07:41:20;;;;;;;27.53;4.37;;;12.30;99.90;;;;;;5040525;28;20232;-81
2024/01/24 07:43:46;;;;;;;24.40;3.47;;;12.30;99.90;;;;;;5040003;28;20160;-81
2024/01/24 07:46:11;;;;;;;30.30;3.27;;;12.30;99.90;;;;;;5039392;28;20174;-82
2024/01/24 07:48:37;;;;;;;26.60;3.20;;;12.30;99.90;;;;;;5040147;28;20170;-82
2024/01/24 07:51:04;;;;;;;28.53;4.30;;;12.30;99.90;;;;;;5023711;28;20162;-83
2024/01/24 07:53:30;;;;;;;25.80;3.00;;;12.30;99.90;;;;;;5023415;28;20174;-81
2024/01/24 07:55:56;;;;;;;26.88;3.97;;;12.30;96.70;;;;;;5041726;28;20503;-82
2024/01/24 07:58:22;;;;;;;28.80;3.90;;;12.30;93.50;;;;;;5040667;28;20189;-81
2024/01/24 08:00:48;;;;;;;26.00;2.90;;;12.30;62.70;;;;;;5040861;28;20202;-81
2024/01/24 08:03:14;;;;;;;25.23;2.93;;;12.40;25.70;;;;;;5039968;28;20170;-81
2024/01/24 08:05:39;;;;;;;26.70;3.60;;;12.40;19.50;;;;;;5039667;28;20166;-82
2024/01/24 08:08:05;;;;;;;38.70;3.83;;;12.40;17.60;;;;;;5040526;28;20237;-80
2024/01/24 08:10:31;;;;;;;28.02;3.60;;;12.40;14.20;;;;;;5041370;28;20566;-81
2024/01/24 08:12:57;;;;;;;33.10;3.20;;;12.30;17.80;;;;;;5039825;28;20154;-81
2024/01/24 08:15:22;;;;;;;28.37;2.90;;;12.30;15.40;;;;;;5039592;28;20631;-82
2024/01/24 08:17:48;;;;;;;32.20;4.10;;;12.30;12.30;;;;;;5039805;28;20182;-81
2024/01/24 08:20:15;;;;;;;28.57;3.70;;;12.40;14.80;;;;;;5041093;28;20197;-81
2024/01/24 08:22:40;;;;;;;24.02;3.53;;;12.30;13.20;;;;;;5039640;28;20623;-82
2024/01/24 08:25:07;;;;;;;29.37;3.40;;;12.30;9.80;;;;;;5023658;28;20177;-80
2024/01/24 08:27:33;;;;;;;32.03;5.00;;;12.30;4.40;;;;;;5038458;28;20185;-82
2024/01/24 08:29:59;;;;;;;32.80;4.57;;;12.30;6.30;;;;;;5038443;28;20253;-81
2024/01/24 08:32:25;;;;;;;27.93;4.27;;;12.30;1.00;;;;;;5038815;28;20220;-81
2024/01/24 08:34:51;;;;;;;29.35;4.30;;;12.30;1.00;;;;;;5038232;28;20427;-82
2024/01/24 08:37:17;;;;;;;29.90;3.83;;;12.30;1.00;;;;;;5039273;28;20190;-83
2024/01/24 08:39:43;;;;;;;27.67;3.80;;;12.30;1.00;;;;;;5039914;28;20197;-81
2024/01/24 08:42:08;;;;;;;35.20;4.17;;;12.30;1.00;;;;;;5038913;28;20173;-82
2024/01/24 08:44:34;;;;;;;37.03;4.33;;;12.30;1.00;;;;;;5037592;28;20195;-81
2024/01/24 08:47:00;;;;;;;36.00;4.33;;;12.30;3.40;;;;;;5021368;28;20239;-82
2024/01/24 08:49:25;;;;;;;25.47;4.03;;;12.30;1.80;;;;;;5039799;28;20248;-81
2024/01/24 08:51:51;;;;;;;35.93;3.70;;;12.30;1.00;;;;;;5038989;28;20170;-82
2024/01/24 08:54:17;;;;;;;30.33;4.50;;;12.30;2.80;;;;;;5038046;28;20170;-81
2024/01/24 08:56:42;;;;;;;38.37;4.17;;;12.30;3.60;;;;;;5020596;28;20205;-82
2024/01/24 08:59:08;;;;;;;24.87;3.80;;;12.20;4.10;;;;;;5039354;28;20567;-81
2024/01/24 09:01:34;;;;;;;33.97;5.30;;;12.20;4.00;;;;;;5043516;28;20197;-83
2024/01/24 09:04:00;;;;;;;33.83;3.87;;;12.30;12.80;;;;;;5041415;28;20158;-81
2024/01/24 09:06:25;;;;;;;22.57;3.70;;;12.30;1.30;;;;;;5038787;28;20432;-81
2024/01/24 09:08:52;;;;;;;29.10;4.47;;;12.30;3.40;;;;;;5040001;28;20170;-81
2024/01/24 09:11:21;;;;;;;34.95;5.55;;;12.20;3.90;;;;;;5040070;28;20235;-82
2024/01/24 09:13:48;;;;;;;27.58;3.75;;;12.20;1.00;;;;;;5023830;28;20177;-83
2024/01/24 09:16:15;;;;;;;35.05;5.05;;;12.20;1.00;;;;;;5040110;28;20166;-82
2024/01/24 09:18:41;;;;;;;28.90;4.75;;;12.20;1.70;;;;;;5040273;28;20542;-81
2024/01/24 09:21:07;;;;;;;33.17;4.23;;;12.20;1.00;;;;;;5040952;28;20249;-81
2024/01/24 09:23:32;;;;;;;39.17;5.07;;;12.20;14.70;;;;;;5042572;28;20166;-82
2024/01/24 09:26:04;;;;;;;40.20;4.10;;;12.10;22.60;;;;;;5044798;28;20166;-82
2024/01/24 09:28:30;;;;;;;29.35;5.20;;;12.00;27.60;;;;;;5048698;28;20785;-83
2024/01/24 09:30:56;;;;;;;27.80;3.30;;;12.00;30.60;;;;;;5047248;28;20201;-83
2024/01/24 09:33:23;;;;;;;33.13;4.23;;;12.00;24.00;;;;;;5047033;28;20146;-82
2024/01/24 09:35:49;;;;;;;33.95;4.75;;;12.00;23.20;;;;;;5043205;28;20470;-82
2024/01/24 09:38:17;;;;;;;43.53;5.77;;;12.10;14.90;;;;;;5044702;28;20174;-83
2024/01/24 09:40:43;;;;;;;29.42;4.55;;;12.10;8.20;;;;;;5041950;28;20432;-83
2024/01/24 09:43:12;;;;;;;35.07;4.87;;;12.10;3.90;;;;;;5026326;28;20185;-84
2024/01/24 09:45:39;;;;;;;29.73;4.80;;;12.20;1.10;;;;;;5022802;28;20212;-80
2024/01/24 09:48:08;;;;;;;41.50;5.25;;;12.20;1.00;;;;;;5038099;28;20209;-81
2024/01/24 09:50:34;;;;;;;29.75;3.95;;;12.20;1.00;;;;;;5037466;28;20228;-82
2024/01/24 09:53:03;;;;;;;37.90;4.65;;;12.30;1.00;;;;;;5020313;28;20174;-81
2024/01/24 09:55:31;;;;;;;29.17;4.40;;;12.30;1.00;;;;;;5037958;28;20211;-81
2024/01/24 09:57:57;;;;;;;29.50;5.57;;;12.30;1.00;;;;;;5036509;28;20558;-82
2024/01/24 10:00:23;;;;;;;29.60;4.30;;;12.30;1.00;;;;;;5038597;28;20185;-81
2024/01/24 10:02:49;;;;;;;32.83;4.83;;;12.30;1.00;;;;;;5038126;28;20193;-81
2024/01/24 10:05:20;;;;;;;35.17;4.32;;;12.30;1.00;;;;;;5038872;28;20166;-81
2024/01/24 10:07:46;;;;;;;39.28;3.65;;;12.30;1.00;;;;;;5038411;28;20606;-81
2024/01/24 10:10:13;;;;;;;32.33;4.38;;;12.30;1.00;;;;;;5021036;28;20162;-80
2024/01/24 10:12:43;;;;;;;28.83;3.92;;;12.30;1.00;;;;;;5039910;28;20153;-82
2024/01/24 10:15:10;;;;;;;36.85;7.22;;;12.30;1.00;;;;;;5039129;28;20157;-82
2024/01/24 10:17:39;;;;;;;27.38;4.45;;;12.40;1.00;;;;;;5020464;28;20190;-80
2024/01/24 10:20:07;;;;;;;34.40;5.10;;;12.40;1.00;;;;;;5019977;28;20182;-80
2024/01/24 10:22:33;;;;;;;32.55;4.22;;;12.40;1.00;;;;;;5038441;28;20237;-81
2024/01/24 10:24:59;;;;;;;31.52;5.78;;;12.40;1.00;;;;;;5038234;28;20170;-80
2024/01/24 10:27:26;;;;;;;37.33;5.63;;;12.40;1.00;;;;;;5038539;28;20208;-80
2024/01/24 10:29:52;;;;;;;35.25;4.82;;;12.50;1.00;;;;;;5037577;28;20401;-81
2024/01/24 10:32:17;;;;;;;33.33;4.20;;;12.50;1.00;;;;;;5037686;28;20173;-82
2024/01/24 10:34:43;;;;;;;32.00;4.70;;;12.50;1.00;;;;;;5038524;28;20251;-81
2024/01/24 10:37:09;;;;;;;29.63;5.10;;;12.50;1.00;;;;;;5037237;28;20194;-81
2024/01/24 10:39:36;;;;;;;24.95;4.13;;;12.50;1.00;;;;;;5036810;28;20193;-82
2024/01/24 10:42:06;;;;;;;33.45;4.72;;;12.50;1.00;;;;;;5019235;28;20300;-82
2024/01/24 10:44:35;;;;;;;32.25;4.45;;;12.50;1.00;;;;;;5020707;28;20176;-82
2024/01/24 10:47:02;;;;;;;30.50;4.60;;;12.60;1.00;;;;;;5019229;28;20190;-81
2024/01/24 10:49:29;;;;;;;31.60;4.65;;;12.60;1.00;;;;;;5018995;28;20213;-83
2024/01/24 10:51:56;;;;;;;27.45;5.03;;;12.60;1.00;;;;;;5037586;28;20165;-81
2024/01/24 10:54:22;;;;;;;25.70;4.38;;;12.60;1.00;;;;;;5038036;28;20170;-82
2024/01/24 10:56:50;;;;;;;37.00;4.78;;;12.60;1.00;;;;;;5019518;28;20190;-82
2024/01/24 10:59:18;;;;;;;34.40;5.78;;;12.60;1.00;;;;;;5018922;28;20194;-81
2024/01/24 11:01:46;;;;;;;38.30;5.38;;;12.60;1.00;;;;;;5036171;28;20582;-81
2024/01/24 11:04:15;;;;;;;37.85;5.38;;;12.50;1.00;;;;;;5036751;28;20496;-82
2024/01/24 11:06:48;;;;;;;35.97;4.85;;;12.50;1.00;;;;;;5036399;28;20189;-81
2024/01/24 11:09:24;;;;;;;29.40;5.53;;;12.50;1.00;;;;;;5037411;28;20154;-81
2024/01/24 11:11:56;;;;;;;36.83;5.05;;;12.50;1.00;;;;;;5019454;28;20184;-83
2024/01/24 11:14:33;;;;;;;27.27;7.07;;;12.50;1.00;;;;;;5037389;28;20201;-82
2024/01/24 11:17:00;;;;;;;37.83;4.35;;;12.60;1.00;;;;;;5037196;28;20189;-82
2024/01/24 11:19:29;;;;;;;37.92;5.10;;;12.60;1.00;;;;;;5019593;28;20194;-82
2024/01/24 11:22:01;;;;;;;29.83;4.80;;;12.60;1.00;;;;;;5037807;28;20241;-82
2024/01/24 11:24:46;;;;;;;38.05;5.20;;;12.60;1.00;;;;;;5038388;28;20585;-82
2024/01/24 11:27:27;;;;;;;33.20;4.75;;;12.60;1.00;;;;;;5036241;28;20216;-82
2024/01/24 11:29:54;;;;;;;35.17;4.55;;;12.60;1.00;;;;;;5037113;28;20166;-81
2024/01/24 11:32:45;;;;;;;44.10;5.70;;;12.60;1.00;;;;;;5037569;28;20221;-81
2024/01/24 11:35:44;;;;;;;35.03;4.55;;;12.60;1.00;;;;;;5019576;28;20231;-81
2024/01/24 11:38:31;;;;;;;26.30;4.45;;;12.50;1.00;;;;;;5039102;28;20570;-83
2024/01/24 11:40:57;;;;;;;41.42;5.68;;;12.50;1.00;;;;;;5038533;28;20158;-82
2024/01/24 11:43:31;;;;;;;31.38;4.82;;;12.50;1.00;;;;;;5019028;28;20172;-82
2024/01/24 11:46:05;;;;;;;27.40;3.47;;;12.50;1.00;;;;;;5036906;28;20519;-81
2024/01/24 11:48:34;;;;;;;31.65;5.75;;;12.50;1.00;;;;;;5036362;28;20174;-81
2024/01/24 11:51:04;;;;;;;46.60;5.75;;;12.50;1.00;;;;;;5018814;28;20173;-83
2024/01/24 11:53:30;;;;;;;32.63;4.60;;;12.50;1.00;;;;;;5018841;28;20166;-81
2024/01/24 11:56:04;;;;;;;34.03;4.00;;;12.60;1.00;;;;;;5037248;28;20257;-81
2024/01/24 11:58:30;;;;;;;30.48;5.05;;;12.60;1.00;;;;;;5037030;28;20388;-81
2024/01/24 12:00:58;;;;;;;31.52;4.63;;;12.60;1.00;;;;;;5018425;28;20174;-80
2024/01/24 12:03:23;;;;;;;29.15;3.88;;;12.60;1.00;;;;;;5035294;28;20643;-81
2024/01/24 12:05:49;;;;;;;28.60;3.77;;;12.60;1.00;;;;;;5035671;28;20165;-81
2024/01/24 12:08:16;;;;;;;29.03;4.80;;;12.70;1.00;;;;;;5038448;28;20193;-84
2024/01/24 12:10:42;;;;;;;32.38;4.20;;;12.70;1.00;;;;;;5037665;28;20809;-83
2024/01/24 12:13:09;;;;;;;35.03;4.60;;;12.80;1.00;;;;;;5036053;28;20197;-81
2024/01/24 12:15:35;;;;;;;30.80;3.95;;;12.90;1.00;;;;;;5019031;28;20181;-83
2024/01/24 12:18:12;;;;;;;31.42;4.72;;;13.00;1.00;;;;;;5035412;28;20181;-84
2024/01/24 12:20:38;;;;;;;33.63;5.03;;;13.00;1.00;;;;;;5039639;28;20216;-81
2024/01/24 12:23:07;;;;;;;28.60;4.40;;;13.00;1.00;;;;;;5038868;28;20166;-81
2024/01/24 12:25:35;;;;;;;42.13;5.60;;;12.90;1.00;;;;;;5040024;28;20401;-81
2024/01/24 12:28:01;;;;;;;28.35;4.20;;;13.00;1.00;;;;;;5038615;28;20177;-83
2024/01/24 12:30:36;;;;;;;32.83;3.93;;;13.10;1.00;;;;;;5039421;28;20259;-81
2024/01/24 12:33:03;;;;;;;36.03;5.82;;;13.10;1.00;;;;;;5022551;28;20896;-83
2024/01/24 12:35:30;;;;;;;35.05;4.88;;;13.10;1.00;;;;;;5039409;28;20209;-81
2024/01/24 12:38:01;;;;;;;39.83;5.55;;;13.20;1.00;;;;;;5039345;28;20182;-82